Discovery — 3FII9 — position and weather

sailwx.info

Track history (hours):
 
Tides and Currents Weather Stations Pressure Air Temp Water Temp Dewpoint Dewpoint Depression Visibility Wind Speed Wind Dir Waves Ship Positions

Discovery

Operator: V Ships Leisure SAM

Last reported at 2019-Aug-20 06:45 UTC. Time now 2019-Aug-20 10:50 UTC.
Position N 37°21' E 006°23'.

Length 177 m; draft 10.2 m.

Type: Cargo ship. MMSI: 353389000.

Date/timePositionNaut miles runAvg speedWind from/ knotsBaromVisibWave heightAir tempDewpointWater temp
2019-Aug-20 06:45N 37°21' E 006°23'9 6.3
2019-Aug-20 05:16N 37°30' E 006°26'8 1.2
2019-Aug-19 22:43N 37°25' E 006°34'0 1.1
2019-Aug-19 22:30N 37°25' E 006°34'12 0.8
2019-Aug-19 07:59N 37°19' E 006°46'3 1.2
2019-Aug-19 05:40N 37°16' E 006°48'9 5.2
2019-Aug-19 03:57N 37°12' E 006°38'1 0.6
2019-Aug-19 01:58N 37°13' E 006°39'0 0.7
2019-Aug-19 01:30N 37°13' E 006°40'1 0.8
2019-Aug-19 00:22N 37°14' E 006°41'0 0.7
2019-Aug-19 00:00N 37°14' E 006°41'0 0.6
2019-Aug-18 23:30N 37°14' E 006°41'0 0.5
2019-Aug-18 22:59N 37°14' E 006°42'0 0.6
2019-Aug-18 22:30N 37°14' E 006°42'1 0.8
2019-Aug-18 21:06N 37°14' E 006°44'0 0.9
2019-Aug-18 21:00N 37°14' E 006°44'0 0.8
2019-Aug-18 20:30N 37°14' E 006°44'0 0.7
2019-Aug-18 20:00N 37°14' E 006°45'0 0.7
2019-Aug-18 19:30N 37°14' E 006°45'1 0.6
2019-Aug-18 17:53N 37°14' E 006°46'0 0.8
2019-Aug-18 17:29N 37°14' E 006°47'0 0.8
2019-Aug-18 16:59N 37°14' E 006°47'1 0.7
2019-Aug-18 15:34N 37°14' E 006°48'0 0.7
2019-Aug-18 15:28N 37°14' E 006°48'0 0.8
2019-Aug-18 15:00N 37°14' E 006°49'0 0.9
2019-Aug-18 14:30N 37°15' E 006°49'0 0.3
2019-Aug-18 13:58N 37°15' E 006°49'2 4.5
2019-Aug-18 13:30N 37°14' E 006°47'0 0.6
2019-Aug-18 13:00N 37°14' E 006°48'0 0.6
2019-Aug-18 12:30N 37°14' E 006°48'1 0.4
2019-Aug-18 10:36N 37°14' E 006°49'0 0.2
2019-Aug-18 09:33N 37°14' E 006°49'0 0.3
2019-Aug-18 09:30N 37°14' E 006°49'11 5.9
2019-Aug-18 07:35N 37°25' E 006°45'2 3.7
2019-Aug-18 07:00N 37°27' E 006°45'0 0.6
2019-Aug-18 06:30N 37°27' E 006°45'0 0.6
2019-Aug-18 06:00N 37°26' E 006°45'0 0.7
2019-Aug-18 05:23N 37°26' E 006°45'0 0.7
2019-Aug-18 04:55N 37°26' E 006°45'3 0.9
2019-Aug-18 01:45N 37°23' E 006°45'0 0.9
2019-Aug-18 01:30N 37°23' E 006°45'2 1.1
2019-Aug-17 23:29N 37°21' E 006°44'1 1.2
2019-Aug-17 23:00N 37°20' E 006°44'1 1.2
2019-Aug-17 22:30N 37°20' E 006°44'1 1.2
2019-Aug-17 21:45N 37°19' E 006°44'0 1.2
2019-Aug-17 21:20N 37°18' E 006°44'0 1.2
2019-Aug-17 21:00N 37°18' E 006°44'1 1.1
2019-Aug-17 20:30N 37°17' E 006°44'5 1.3
2019-Aug-17 16:57N 37°14' E 006°47'11 7.8
2019-Aug-17 15:32N 37°11' E 007°01'010.9
2019-Aug-17 15:30N 37°10' E 007°01'1 2.7
2019-Aug-17 15:00N 37°11' E 007°03'1 1.3
2019-Aug-17 14:07N 37°12' E 007°03'0 1.1
2019-Aug-17 14:00N 37°12' E 007°03'3 0.8
2019-Aug-17 10:01N 37°16' E 007°03'0 0.7
2019-Aug-17 10:00N 37°16' E 007°03'0 0.7
2019-Aug-17 09:30N 37°16' E 007°02'133 3.1
2019-Aug-15 14:28N 39°18' E 005°56'1913.3
2019-Aug-15 13:02N 39°37' E 005°53'1813.5
2019-Aug-15 11:41N 39°55' E 005°48'813.5
2019-Aug-15 11:07N 40°03' E 005°46'813.5
2019-Aug-15 10:31N 40°11' E 005°44'613.5
2019-Aug-15 10:03N 40°17' E 005°43'113.8
2019-Aug-15 09:59N 40°18' E 005°43'2013.7
2019-Aug-15 08:31N 40°38' E 005°38'013.8
2019-Aug-15 08:29N 40°38' E 005°38'813.5
2019-Aug-15 07:55N 40°46' E 005°36'713.2
2019-Aug-15 07:23N 40°53' E 005°34'913.0
2019-Aug-15 06:41N 41°02' E 005°32'213.0
2019-Aug-15 06:30N 41°04' E 005°32'1012.8
2019-Aug-15 05:45N 41°13' E 005°30'312.6
2019-Aug-15 05:31N 41°16' E 005°29'712.7
2019-Aug-15 05:00N 41°23' E 005°27'712.7
2019-Aug-15 04:25N 41°30' E 005°25'512.8
2019-Aug-15 04:00N 41°35' E 005°24'713.0
2019-Aug-15 03:30N 41°41' E 005°23'713.2
2019-Aug-15 03:00N 41°48' E 005°21'713.2
2019-Aug-15 02:30N 41°55' E 005°20'613.2
2019-Aug-15 02:00N 42°01' E 005°18'713.2
2019-Aug-15 01:30N 42°07' E 005°16'713.0
2019-Aug-15 01:00N 42°14' E 005°15'713.0
2019-Aug-15 00:30N 42°20' E 005°14'813.0
2019-Aug-14 23:52N 42°29' E 005°12'513.0
2019-Aug-14 23:30N 42°33' E 005°11'3713.2
2019-Aug-14 20:43N 43°09' E 005°02'313.3
2019-Aug-14 20:30N 43°12' E 005°01'713.0
2019-Aug-14 20:00N 43°18' E 004°59'4 8.6
2019-Aug-14 19:30N 43°22' E 004°57'4 7.7
2019-Aug-14 19:00N 43°25' E 004°53'0 0.1
2019-Aug-14 17:30N 43°25' E 004°53'0 0.0
2019-Aug-14 17:00N 43°25' E 004°53'0 0.0
2019-Aug-14 16:30N 43°25' E 004°53'0 0.0
2019-Aug-14 15:57N 43°25' E 004°53'0 0.0
2019-Aug-14 14:57N 43°25' E 004°53'0 0.0
2019-Aug-14 14:27N 43°25' E 004°53'0 0.0
2019-Aug-14 14:00N 43°25' E 004°53'0 0.0
2019-Aug-12 20:45N 43°25' E 004°53'0 0.8
2019-Aug-12 20:26N 43°25' E 004°53'3 6.1
2019-Aug-12 20:00N 43°24' E 004°56'4 8.2
2019-Aug-12 19:30N 43°20' E 004°59'5 7.9
2019-Aug-12 18:51N 43°15' E 005°01'10010.3
2019-Aug-12 09:08N 41°46' E 006°03'1713.3
2019-Aug-12 07:53N 41°32' E 006°14'411.6
2019-Aug-12 07:30N 41°28' E 006°17'611.6
2019-Aug-12 07:00N 41°23' E 006°20'611.6
2019-Aug-12 06:29N 41°17' E 006°24'711.4
2019-Aug-12 05:52N 41°11' E 006°28'411.5
2019-Aug-12 05:30N 41°08' E 006°31'611.3
2019-Aug-12 05:00N 41°03' E 006°35'611.7
2019-Aug-12 04:30N 40°57' E 006°38'911.5
2019-Aug-12 03:43N 40°49' E 006°44'211.4
2019-Aug-12 03:30N 40°47' E 006°45'611.2
2019-Aug-12 03:00N 40°42' E 006°49'611.4
2019-Aug-12 02:29N 40°37' E 006°52'511.5
2019-Aug-12 02:00N 40°32' E 006°56'611.5
2019-Aug-12 01:30N 40°27' E 006°59'611.4
2019-Aug-12 01:00N 40°22' E 007°03'611.3
2019-Aug-12 00:30N 40°17' E 007°06'611.2
2019-Aug-12 00:00N 40°12' E 007°09'611.2
2019-Aug-11 23:30N 40°07' E 007°13'611.1
2019-Aug-11 23:00N 40°02' E 007°16'511.2
2019-Aug-11 22:30N 39°57' E 007°20'611.3
2019-Aug-11 22:00N 39°52' E 007°23'611.5
2019-Aug-11 21:30N 39°47' E 007°27'611.6
2019-Aug-11 21:00N 39°42' E 007°30'611.4
2019-Aug-11 20:30N 39°37' E 007°34'611.5
2019-Aug-11 20:00N 39°32' E 007°37'611.5
2019-Aug-11 19:30N 39°27' E 007°40'611.6
2019-Aug-11 19:00N 39°22' E 007°44'611.6
2019-Aug-11 18:30N 39°16' E 007°47'611.7
2019-Aug-11 18:00N 39°11' E 007°51'611.6
2019-Aug-11 17:30N 39°06' E 007°54'611.6
2019-Aug-11 17:00N 39°01' E 007°58'1011.8
2019-Aug-11 16:09N 38°53' E 008°05'211.7
2019-Aug-11 16:00N 38°51' E 008°07'611.7
2019-Aug-11 15:28N 38°46' E 008°11'611.7
2019-Aug-11 15:00N 38°42' E 008°15'611.1
2019-Aug-11 14:30N 38°39' E 008°21'611.6
2019-Aug-11 13:58N 38°37' E 008°29'611.7
2019-Aug-11 13:29N 38°35' E 008°36'2012.0
2019-Aug-11 11:51N 38°30' E 008°60'712.0
2019-Aug-11 11:14N 38°28' E 009°09'512.1
2019-Aug-11 10:48N 38°26' E 009°15'2411.8
2019-Aug-11 08:48N 38°20' E 009°44'711.5
2019-Aug-11 08:13N 38°18' E 009°52'311.5
2019-Aug-11 07:56N 38°17' E 009°56'511.5
2019-Aug-11 07:30N 38°16' E 010°03'813.3
2019-Aug-11 06:55N 38°13' E 010°12'1012.2
2019-Aug-11 06:04N 38°10' E 010°25'111.2
2019-Aug-11 05:59N 38°10' E 010°26'1011.4
2019-Aug-11 05:04N 38°07' E 010°38'111.6
2019-Aug-11 05:00N 38°07' E 010°40'1011.6
2019-Aug-11 04:09N 38°04' E 010°51'10110.9
2019-Aug-10 18:56N 36°59' E 012°28'511.4
2019-Aug-10 18:30N 36°57' E 012°34'611.6
2019-Aug-10 18:00N 36°55' E 012°41'611.6
2019-Aug-10 17:30N 36°53' E 012°48'611.5
2019-Aug-10 17:00N 36°51' E 012°54'611.3
2019-Aug-10 16:31N 36°49' E 013°01'611.2
2019-Aug-10 16:00N 36°47' E 013°08'611.1
2019-Aug-10 15:31N 36°46' E 013°14'510.9
2019-Aug-10 15:00N 36°44' E 013°21'510.8
2019-Aug-10 14:30N 36°42' E 013°27'611.0
2019-Aug-10 14:00N 36°41' E 013°34'511.2
2019-Aug-10 13:30N 36°39' E 013°40'611.2
2019-Aug-10 13:00N 36°37' E 013°47'611.2
2019-Aug-10 12:30N 36°35' E 013°53'611.1
2019-Aug-10 12:00N 36°33' E 013°60'611.1
2019-Aug-10 11:30N 36°31' E 014°06'611.1
2019-Aug-10 11:00N 36°29' E 014°13'611.1
2019-Aug-10 10:30N 36°28' E 014°19'611.0
2019-Aug-10 10:00N 36°26' E 014°26'510.9
2019-Aug-10 09:30N 36°24' E 014°32'511.0
2019-Aug-10 09:00N 36°22' E 014°39'511.0
2019-Aug-10 08:30N 36°20' E 014°45'611.1
2019-Aug-10 08:00N 36°19' E 014°52'611.3
2019-Aug-10 07:28N 36°17' E 014°59'  
Track history (hours):
 
Tides and Currents Weather Stations Pressure Air Temp Water Temp Dewpoint Dewpoint Depression Visibility Wind Speed Wind Dir Waves Ship Positions

Discovery

Operator: V Ships Leisure SAM

Last reported at 2019-Aug-20 06:45 UTC. Time now 2019-Aug-20 10:50 UTC.
Position N 37°21' E 006°23'.

Length 177 m; draft 10.2 m.

Type: Cargo ship. MMSI: 353389000.

Date/timePositionNaut miles runAvg speedWind from/ knotsBaromVisibWave heightAir tempDewpointWater temp
2019-Aug-20 06:45N 37°21' E 006°23'9 6.3
2019-Aug-20 05:16N 37°30' E 006°26'8 1.2
2019-Aug-19 22:43N 37°25' E 006°34'0 1.1
2019-Aug-19 22:30N 37°25' E 006°34'12 0.8
2019-Aug-19 07:59N 37°19' E 006°46'3 1.2
2019-Aug-19 05:40N 37°16' E 006°48'9 5.2
2019-Aug-19 03:57N 37°12' E 006°38'1 0.6
2019-Aug-19 01:58N 37°13' E 006°39'0 0.7
2019-Aug-19 01:30N 37°13' E 006°40'1 0.8
2019-Aug-19 00:22N 37°14' E 006°41'0 0.7
2019-Aug-19 00:00N 37°14' E 006°41'0 0.6
2019-Aug-18 23:30N 37°14' E 006°41'0 0.5
2019-Aug-18 22:59N 37°14' E 006°42'0 0.6
2019-Aug-18 22:30N 37°14' E 006°42'1 0.8
2019-Aug-18 21:06N 37°14' E 006°44'0 0.9
2019-Aug-18 21:00N 37°14' E 006°44'0 0.8
2019-Aug-18 20:30N 37°14' E 006°44'0 0.7
2019-Aug-18 20:00N 37°14' E 006°45'0 0.7
2019-Aug-18 19:30N 37°14' E 006°45'1 0.6
2019-Aug-18 17:53N 37°14' E 006°46'0 0.8
2019-Aug-18 17:29N 37°14' E 006°47'0 0.8
2019-Aug-18 16:59N 37°14' E 006°47'1 0.7
2019-Aug-18 15:34N 37°14' E 006°48'0 0.7
2019-Aug-18 15:28N 37°14' E 006°48'0 0.8
2019-Aug-18 15:00N 37°14' E 006°49'0 0.9
2019-Aug-18 14:30N 37°15' E 006°49'0 0.3
2019-Aug-18 13:58N 37°15' E 006°49'2 4.5
2019-Aug-18 13:30N 37°14' E 006°47'0 0.6
2019-Aug-18 13:00N 37°14' E 006°48'0 0.6
2019-Aug-18 12:30N 37°14' E 006°48'1 0.4
2019-Aug-18 10:36N 37°14' E 006°49'0 0.2
2019-Aug-18 09:33N 37°14' E 006°49'0 0.3
2019-Aug-18 09:30N 37°14' E 006°49'11 5.9
2019-Aug-18 07:35N 37°25' E 006°45'2 3.7
2019-Aug-18 07:00N 37°27' E 006°45'0 0.6
2019-Aug-18 06:30N 37°27' E 006°45'0 0.6
2019-Aug-18 06:00N 37°26' E 006°45'0 0.7
2019-Aug-18 05:23N 37°26' E 006°45'0 0.7
2019-Aug-18 04:55N 37°26' E 006°45'3 0.9
2019-Aug-18 01:45N 37°23' E 006°45'0 0.9
2019-Aug-18 01:30N 37°23' E 006°45'2 1.1
2019-Aug-17 23:29N 37°21' E 006°44'1 1.2
2019-Aug-17 23:00N 37°20' E 006°44'1 1.2
2019-Aug-17 22:30N 37°20' E 006°44'1 1.2
2019-Aug-17 21:45N 37°19' E 006°44'0 1.2
2019-Aug-17 21:20N 37°18' E 006°44'0 1.2
2019-Aug-17 21:00N 37°18' E 006°44'1 1.1
2019-Aug-17 20:30N 37°17' E 006°44'5 1.3
2019-Aug-17 16:57N 37°14' E 006°47'11 7.8
2019-Aug-17 15:32N 37°11' E 007°01'010.9
2019-Aug-17 15:30N 37°10' E 007°01'1 2.7
2019-Aug-17 15:00N 37°11' E 007°03'1 1.3
2019-Aug-17 14:07N 37°12' E 007°03'0 1.1
2019-Aug-17 14:00N 37°12' E 007°03'3 0.8
2019-Aug-17 10:01N 37°16' E 007°03'0 0.7
2019-Aug-17 10:00N 37°16' E 007°03'0 0.7
2019-Aug-17 09:30N 37°16' E 007°02'133 3.1
2019-Aug-15 14:28N 39°18' E 005°56'1913.3
2019-Aug-15 13:02N 39°37' E 005°53'1813.5
2019-Aug-15 11:41N 39°55' E 005°48'813.5
2019-Aug-15 11:07N 40°03' E 005°46'813.5
2019-Aug-15 10:31N 40°11' E 005°44'613.5
2019-Aug-15 10:03N 40°17' E 005°43'113.8
2019-Aug-15 09:59N 40°18' E 005°43'2013.7
2019-Aug-15 08:31N 40°38' E 005°38'013.8
2019-Aug-15 08:29N 40°38' E 005°38'813.5
2019-Aug-15 07:55N 40°46' E 005°36'713.2
2019-Aug-15 07:23N 40°53' E 005°34'913.0
2019-Aug-15 06:41N 41°02' E 005°32'213.0
2019-Aug-15 06:30N 41°04' E 005°32'1012.8
2019-Aug-15 05:45N 41°13' E 005°30'312.6
2019-Aug-15 05:31N 41°16' E 005°29'712.7
2019-Aug-15 05:00N 41°23' E 005°27'712.7
2019-Aug-15 04:25N 41°30' E 005°25'512.8
2019-Aug-15 04:00N 41°35' E 005°24'713.0
2019-Aug-15 03:30N 41°41' E 005°23'713.2
2019-Aug-15 03:00N 41°48' E 005°21'713.2
2019-Aug-15 02:30N 41°55' E 005°20'613.2
2019-Aug-15 02:00N 42°01' E 005°18'713.2
2019-Aug-15 01:30N 42°07' E 005°16'713.0
2019-Aug-15 01:00N 42°14' E 005°15'713.0
2019-Aug-15 00:30N 42°20' E 005°14'813.0
2019-Aug-14 23:52N 42°29' E 005°12'513.0
2019-Aug-14 23:30N 42°33' E 005°11'3713.2
2019-Aug-14 20:43N 43°09' E 005°02'313.3
2019-Aug-14 20:30N 43°12' E 005°01'713.0
2019-Aug-14 20:00N 43°18' E 004°59'4 8.6
2019-Aug-14 19:30N 43°22' E 004°57'4 7.7
2019-Aug-14 19:00N 43°25' E 004°53'0 0.1
2019-Aug-14 17:30N 43°25' E 004°53'0 0.0
2019-Aug-14 17:00N 43°25' E 004°53'0 0.0
2019-Aug-14 16:30N 43°25' E 004°53'0 0.0
2019-Aug-14 15:57N 43°25' E 004°53'0 0.0
2019-Aug-14 14:57N 43°25' E 004°53'0 0.0
2019-Aug-14 14:27N 43°25' E 004°53'0 0.0
2019-Aug-14 14:00N 43°25' E 004°53'0 0.0
2019-Aug-12 20:45N 43°25' E 004°53'0 0.8
2019-Aug-12 20:26N 43°25' E 004°53'3 6.1
2019-Aug-12 20:00N 43°24' E 004°56'4 8.2
2019-Aug-12 19:30N 43°20' E 004°59'5 7.9
2019-Aug-12 18:51N 43°15' E 005°01'10010.3
2019-Aug-12 09:08N 41°46' E 006°03'1713.3
2019-Aug-12 07:53N 41°32' E 006°14'411.6
2019-Aug-12 07:30N 41°28' E 006°17'611.6
2019-Aug-12 07:00N 41°23' E 006°20'611.6
2019-Aug-12 06:29N 41°17' E 006°24'711.4
2019-Aug-12 05:52N 41°11' E 006°28'411.5
2019-Aug-12 05:30N 41°08' E 006°31'611.3
2019-Aug-12 05:00N 41°03' E 006°35'611.7
2019-Aug-12 04:30N 40°57' E 006°38'911.5
2019-Aug-12 03:43N 40°49' E 006°44'211.4
2019-Aug-12 03:30N 40°47' E 006°45'611.2
2019-Aug-12 03:00N 40°42' E 006°49'611.4
2019-Aug-12 02:29N 40°37' E 006°52'511.5
2019-Aug-12 02:00N 40°32' E 006°56'611.5
2019-Aug-12 01:30N 40°27' E 006°59'611.4
2019-Aug-12 01:00N 40°22' E 007°03'611.3
2019-Aug-12 00:30N 40°17' E 007°06'611.2
2019-Aug-12 00:00N 40°12' E 007°09'611.2
2019-Aug-11 23:30N 40°07' E 007°13'611.1
2019-Aug-11 23:00N 40°02' E 007°16'511.2
2019-Aug-11 22:30N 39°57' E 007°20'611.3
2019-Aug-11 22:00N 39°52' E 007°23'611.5
2019-Aug-11 21:30N 39°47' E 007°27'611.6
2019-Aug-11 21:00N 39°42' E 007°30'611.4
2019-Aug-11 20:30N 39°37' E 007°34'611.5
2019-Aug-11 20:00N 39°32' E 007°37'611.5
2019-Aug-11 19:30N 39°27' E 007°40'611.6
2019-Aug-11 19:00N 39°22' E 007°44'611.6
2019-Aug-11 18:30N 39°16' E 007°47'611.7
2019-Aug-11 18:00N 39°11' E 007°51'611.6
2019-Aug-11 17:30N 39°06' E 007°54'611.6
2019-Aug-11 17:00N 39°01' E 007°58'1011.8
2019-Aug-11 16:09N 38°53' E 008°05'211.7
2019-Aug-11 16:00N 38°51' E 008°07'611.7
2019-Aug-11 15:28N 38°46' E 008°11'611.7
2019-Aug-11 15:00N 38°42' E 008°15'611.1
2019-Aug-11 14:30N 38°39' E 008°21'611.6
2019-Aug-11 13:58N 38°37' E 008°29'611.7
2019-Aug-11 13:29N 38°35' E 008°36'2012.0
2019-Aug-11 11:51N 38°30' E 008°60'712.0
2019-Aug-11 11:14N 38°28' E 009°09'512.1
2019-Aug-11 10:48N 38°26' E 009°15'2411.8
2019-Aug-11 08:48N 38°20' E 009°44'711.5
2019-Aug-11 08:13N 38°18' E 009°52'311.5
2019-Aug-11 07:56N 38°17' E 009°56'511.5
2019-Aug-11 07:30N 38°16' E 010°03'813.3
2019-Aug-11 06:55N 38°13' E 010°12'1012.2
2019-Aug-11 06:04N 38°10' E 010°25'111.2
2019-Aug-11 05:59N 38°10' E 010°26'1011.4
2019-Aug-11 05:04N 38°07' E 010°38'111.6
2019-Aug-11 05:00N 38°07' E 010°40'1011.6
2019-Aug-11 04:09N 38°04' E 010°51'10110.9
2019-Aug-10 18:56N 36°59' E 012°28'511.4
2019-Aug-10 18:30N 36°57' E 012°34'611.6
2019-Aug-10 18:00N 36°55' E 012°41'611.6
2019-Aug-10 17:30N 36°53' E 012°48'611.5
2019-Aug-10 17:00N 36°51' E 012°54'611.3
2019-Aug-10 16:31N 36°49' E 013°01'611.2
2019-Aug-10 16:00N 36°47' E 013°08'611.1
2019-Aug-10 15:31N 36°46' E 013°14'510.9
2019-Aug-10 15:00N 36°44' E 013°21'510.8
2019-Aug-10 14:30N 36°42' E 013°27'611.0
2019-Aug-10 14:00N 36°41' E 013°34'511.2
2019-Aug-10 13:30N 36°39' E 013°40'611.2
2019-Aug-10 13:00N 36°37' E 013°47'611.2
2019-Aug-10 12:30N 36°35' E 013°53'611.1
2019-Aug-10 12:00N 36°33' E 013°60'611.1
2019-Aug-10 11:30N 36°31' E 014°06'611.1
2019-Aug-10 11:00N 36°29' E 014°13'611.1
2019-Aug-10 10:30N 36°28' E 014°19'611.0
2019-Aug-10 10:00N 36°26' E 014°26'510.9
2019-Aug-10 09:30N 36°24' E 014°32'511.0
2019-Aug-10 09:00N 36°22' E 014°39'511.0
2019-Aug-10 08:30N 36°20' E 014°45'611.1
2019-Aug-10 08:00N 36°19' E 014°52'611.3
2019-Aug-10 07:28N 36°17' E 014°59'  

Dump ship's entire track history